LIPX/VRN METAR and TAF weather

Enter ICAO airport designator
Station Type Date Time Source
LIPX METAR 2021/01/20 22:50 UTC NOAA

LIPX 202250Z 03003KT 4000 BR SCT020 BKN050 01/01 Q1018


Station Type Date Time Source
LIPX Decoded METAR 2021/01/20 22:50 UTC NOAA

Verona / Villafranca, Italy (LIPX) 45-23N 010-52E 68M
Jan 20, 2021 - 05:50 PM EST / 2021.01.20 2250 UTC
Wind: from the NNE (030 degrees) at 3 MPH (3 KT):0
Visibility: 2 mile(s):0
Sky conditions: mostly cloudy
Weather: mist
Temperature: 33 F (1 C)
Dew Point: 33 F (1 C)
Relative Humidity: 100%
Pressure (altimeter): 30.06 in. Hg (1018 hPa)
ob: LIPX 202250Z 03003KT 4000 BR SCT020 BKN050 01/01 Q1018
cycle: 23

Station Type Date Time Source
LIPX TAF 2014/04/22 15:24 UTC NOAA

TAF LIPX 221400Z 2215/2324 VRB05KT 9999 SCT030 SCT070
TEMPO 2215/2218 SCT025CB SCT080 PROB30
TEMPO 2215/2218 TS

Example: see airport list